sensor_id;sensor_type;location;lat;lon;timestamp;temperature;humidity
47434;SHT31;33184;48.774;8.918;2022-11-24T00:02:02;6.62;85.68
47434;SHT31;33184;48.774;8.918;2022-11-24T00:07:22;6.81;86.07
47434;SHT31;33184;48.774;8.918;2022-11-24T00:12:43;7.04;85.48
47434;SHT31;33184;48.774;8.918;2022-11-24T00:18:03;7.11;84.96
47434;SHT31;33184;48.774;8.918;2022-11-24T00:23:24;7.05;84.97
47434;SHT31;33184;48.774;8.918;2022-11-24T00:28:46;6.94;84.95
47434;SHT31;33184;48.774;8.918;2022-11-24T00:34:12;6.77;84.98
47434;SHT31;33184;48.774;8.918;2022-11-24T00:39:33;6.62;85.12
47434;SHT31;33184;48.774;8.918;2022-11-24T00:44:54;6.43;85.20
47434;SHT31;33184;48.774;8.918;2022-11-24T00:50:14;6.39;85.76
47434;SHT31;33184;48.774;8.918;2022-11-24T00:55:35;6.40;86.07
47434;SHT31;33184;48.774;8.918;2022-11-24T01:01:01;6.45;86.41
47434;SHT31;33184;48.774;8.918;2022-11-24T01:06:25;6.50;86.78
47434;SHT31;33184;48.774;8.918;2022-11-24T01:11:45;6.60;86.84
47434;SHT31;33184;48.774;8.918;2022-11-24T01:17:21;6.72;86.74
47434;SHT31;33184;48.774;8.918;2022-11-24T01:22:41;6.73;86.60
47434;SHT31;33184;48.774;8.918;2022-11-24T01:28:02;6.75;86.70
47434;SHT31;33184;48.774;8.918;2022-11-24T01:33:22;6.73;86.80
47434;SHT31;33184;48.774;8.918;2022-11-24T01:38:43;6.73;86.91
47434;SHT31;33184;48.774;8.918;2022-11-24T01:44:39;6.75;86.92
47434;SHT31;33184;48.774;8.918;2022-11-24T01:50:03;6.72;86.93
47434;SHT31;33184;48.774;8.918;2022-11-24T01:55:28;6.83;86.79
47434;SHT31;33184;48.774;8.918;2022-11-24T02:00:49;6.96;86.03
47434;SHT31;33184;48.774;8.918;2022-11-24T02:06:18;7.13;85.05
47434;SHT31;33184;48.774;8.918;2022-11-24T02:11:40;7.10;84.44
47434;SHT31;33184;48.774;8.918;2022-11-24T02:17:02;7.04;84.24
47434;SHT31;33184;48.774;8.918;2022-11-24T02:27:53;6.77;84.82
47434;SHT31;33184;48.774;8.918;2022-11-24T02:33:15;6.70;85.24
47434;SHT31;33184;48.774;8.918;2022-11-24T02:38:36;6.62;85.39
47434;SHT31;33184;48.774;8.918;2022-11-24T02:43:59;6.49;85.81
47434;SHT31;33184;48.774;8.918;2022-11-24T02:49:20;6.38;86.10
47434;SHT31;33184;48.774;8.918;2022-11-24T02:54:41;6.35;86.38
47434;SHT31;33184;48.774;8.918;2022-11-24T03:00:02;6.38;86.51
47434;SHT31;33184;48.774;8.918;2022-11-24T03:05:23;6.36;86.65
47434;SHT31;33184;48.774;8.918;2022-11-24T03:10:43;6.38;86.76
47434;SHT31;33184;48.774;8.918;2022-11-24T03:16:07;6.39;86.82
47434;SHT31;33184;48.774;8.918;2022-11-24T03:21:28;6.45;86.70
47434;SHT31;33184;48.774;8.918;2022-11-24T03:26:49;6.49;86.58
47434;SHT31;33184;48.774;8.918;2022-11-24T03:32:10;6.52;86.41
47434;SHT31;33184;48.774;8.918;2022-11-24T03:37:30;6.56;86.46
47434;SHT31;33184;48.774;8.918;2022-11-24T03:42:51;6.70;86.10
47434;SHT31;33184;48.774;8.918;2022-11-24T03:48:12;6.75;85.76
47434;SHT31;33184;48.774;8.918;2022-11-24T03:53:33;6.75;85.61
47434;SHT31;33184;48.774;8.918;2022-11-24T03:58:54;6.79;85.42
47434;SHT31;33184;48.774;8.918;2022-11-24T04:04:14;6.84;85.03
47434;SHT31;33184;48.774;8.918;2022-11-24T04:09:35;6.89;84.92
47434;SHT31;33184;48.774;8.918;2022-11-24T04:14:55;6.86;84.97
47434;SHT31;33184;48.774;8.918;2022-11-24T04:20:16;6.86;84.84
47434;SHT31;33184;48.774;8.918;2022-11-24T04:25:36;6.90;84.57
47434;SHT31;33184;48.774;8.918;2022-11-24T04:31:04;6.84;84.69
47434;SHT31;33184;48.774;8.918;2022-11-24T04:36:25;6.72;85.11
47434;SHT31;33184;48.774;8.918;2022-11-24T04:41:46;6.59;85.64
47434;SHT31;33184;48.774;8.918;2022-11-24T04:47:09;6.53;86.18
47434;SHT31;33184;48.774;8.918;2022-11-24T04:52:31;6.52;85.98
47434;SHT31;33184;48.774;8.918;2022-11-24T04:57:52;6.45;86.18
47434;SHT31;33184;48.774;8.918;2022-11-24T05:03:12;6.39;86.36
47434;SHT31;33184;48.774;8.918;2022-11-24T05:08:33;6.36;86.62
47434;SHT31;33184;48.774;8.918;2022-11-24T05:13:54;6.30;86.49
47434;SHT31;33184;48.774;8.918;2022-11-24T05:19:14;6.24;86.68
47434;SHT31;33184;48.774;8.918;2022-11-24T05:24:35;6.11;86.91
47434;SHT31;33184;48.774;8.918;2022-11-24T05:29:56;6.14;87.24
47434;SHT31;33184;48.774;8.918;2022-11-24T05:35:16;6.11;87.47
47434;SHT31;33184;48.774;8.918;2022-11-24T05:40:38;6.19;87.68
47434;SHT31;33184;48.774;8.918;2022-11-24T05:45:59;6.28;87.55
47434;SHT31;33184;48.774;8.918;2022-11-24T05:51:20;6.33;87.47
47434;SHT31;33184;48.774;8.918;2022-11-24T05:56:40;6.48;87.15
47434;SHT31;33184;48.774;8.918;2022-11-24T06:02:01;6.49;87.08
47434;SHT31;33184;48.774;8.918;2022-11-24T06:07:22;6.52;87.21
47434;SHT31;33184;48.774;8.918;2022-11-24T06:12:43;6.52;87.12
47434;SHT31;33184;48.774;8.918;2022-11-24T06:18:03;6.56;86.82
47434;SHT31;33184;48.774;8.918;2022-11-24T06:23:24;6.56;86.72
47434;SHT31;33184;48.774;8.918;2022-11-24T06:28:44;6.57;86.88
47434;SHT31;33184;48.774;8.918;2022-11-24T06:34:08;6.62;86.71
47434;SHT31;33184;48.774;8.918;2022-11-24T06:39:30;6.65;86.82
47434;SHT31;33184;48.774;8.918;2022-11-24T06:44:51;6.63;86.87
47434;SHT31;33184;48.774;8.918;2022-11-24T06:50:11;6.57;87.46
47434;SHT31;33184;48.774;8.918;2022-11-24T06:55:32;6.54;87.82
47434;SHT31;33184;48.774;8.918;2022-11-24T07:00:53;6.57;88.24
47434;SHT31;33184;48.774;8.918;2022-11-24T07:06:14;6.50;88.49
47434;SHT31;33184;48.774;8.918;2022-11-24T07:11:35;6.43;89.08
47434;SHT31;33184;48.774;8.918;2022-11-24T07:16:56;6.46;89.50
47434;SHT31;33184;48.774;8.918;2022-11-24T07:22:16;6.45;89.82
47434;SHT31;33184;48.774;8.918;2022-11-24T07:27:37;6.42;90.24
47434;SHT31;33184;48.774;8.918;2022-11-24T07:32:58;6.40;90.36
47434;SHT31;33184;48.774;8.918;2022-11-24T07:38:19;6.46;90.47
47434;SHT31;33184;48.774;8.918;2022-11-24T07:43:40;6.49;89.56
47434;SHT31;33184;48.774;8.918;2022-11-24T07:49:01;6.57;89.08
47434;SHT31;33184;48.774;8.918;2022-11-24T07:54:21;6.65;88.57
47434;SHT31;33184;48.774;8.918;2022-11-24T07:59:42;6.50;88.46
47434;SHT31;33184;48.774;8.918;2022-11-24T08:05:02;6.43;87.57
47434;SHT31;33184;48.774;8.918;2022-11-24T08:10:23;6.40;88.00
47434;SHT31;33184;48.774;8.918;2022-11-24T08:15:44;6.36;88.30
47434;SHT31;33184;48.774;8.918;2022-11-24T08:21:05;6.32;87.50
47434;SHT31;33184;48.774;8.918;2022-11-24T08:26:25;6.28;86.95
47434;SHT31;33184;48.774;8.918;2022-11-24T08:31:46;6.26;86.99
47434;SHT31;33184;48.774;8.918;2022-11-24T08:37:06;6.21;86.70
47434;SHT31;33184;48.774;8.918;2022-11-24T08:42:27;6.21;86.81
47434;SHT31;33184;48.774;8.918;2022-11-24T08:47:52;6.29;86.95
47434;SHT31;33184;48.774;8.918;2022-11-24T08:53:13;6.46;87.21
47434;SHT31;33184;48.774;8.918;2022-11-24T08:58:34;6.52;87.32
47434;SHT31;33184;48.774;8.918;2022-11-24T09:03:55;6.54;87.27
47434;SHT31;33184;48.774;8.918;2022-11-24T09:09:15;6.60;86.67
47434;SHT31;33184;48.774;8.918;2022-11-24T09:14:37;6.73;85.87
47434;SHT31;33184;48.774;8.918;2022-11-24T09:19:57;6.80;85.65
47434;SHT31;33184;48.774;8.918;2022-11-24T09:25:18;6.76;86.03
47434;SHT31;33184;48.774;8.918;2022-11-24T09:30:39;6.76;86.18
47434;SHT31;33184;48.774;8.918;2022-11-24T09:35:59;6.84;86.26
47434;SHT31;33184;48.774;8.918;2022-11-24T09:41:32;6.84;85.68
47434;SHT31;33184;48.774;8.918;2022-11-24T09:58:42;7.17;85.68
47434;SHT31;33184;48.774;8.918;2022-11-24T10:04:08;7.61;84.70
47434;SHT31;33184;48.774;8.918;2022-11-24T10:31:36;7.55;85.86
47434;SHT31;33184;48.774;8.918;2022-11-24T10:37:04;8.21;85.55
47434;SHT31;33184;48.774;8.918;2022-11-24T10:42:30;8.06;84.70
47434;SHT31;33184;48.774;8.918;2022-11-24T10:47:52;7.83;84.68
47434;SHT31;33184;48.774;8.918;2022-11-24T10:53:28;7.76;85.44
47434;SHT31;33184;48.774;8.918;2022-11-24T10:58:49;7.87;85.97
47434;SHT31;33184;48.774;8.918;2022-11-24T11:04:18;8.05;85.32
47434;SHT31;33184;48.774;8.918;2022-11-24T11:09:38;8.06;85.26
47434;SHT31;33184;48.774;8.918;2022-11-24T11:15:23;7.96;85.33
47434;SHT31;33184;48.774;8.918;2022-11-24T11:20:55;7.92;85.41
47434;SHT31;33184;48.774;8.918;2022-11-24T11:26:17;8.10;86.43
47434;SHT31;33184;48.774;8.918;2022-11-24T11:31:39;8.19;85.08
47434;SHT31;33184;48.774;8.918;2022-11-24T11:37:01;8.07;85.22
47434;SHT31;33184;48.774;8.918;2022-11-24T11:53:26;9.47;75.62
47434;SHT31;33184;48.774;8.918;2022-11-24T12:04:58;10.92;67.80
47434;SHT31;33184;48.774;8.918;2022-11-24T12:10:35;10.84;67.43
47434;SHT31;33184;48.774;8.918;2022-11-24T12:16:15;10.56;68.50
47434;SHT31;33184;48.774;8.918;2022-11-24T12:21:46;9.98;71.09
47434;SHT31;33184;48.774;8.918;2022-11-24T12:33:13;10.02;70.21
47434;SHT31;33184;48.774;8.918;2022-11-24T12:38:43;9.98;68.68
47434;SHT31;33184;48.774;8.918;2022-11-24T12:44:16;10.29;68.37
47434;SHT31;33184;48.774;8.918;2022-11-24T12:49:49;11.48;63.90
47434;SHT31;33184;48.774;8.918;2022-11-24T12:55:18;11.41;62.17
47434;SHT31;33184;48.774;8.918;2022-11-24T13:06:40;12.00;60.86
47434;SHT31;33184;48.774;8.918;2022-11-24T13:12:13;12.54;60.42
47434;SHT31;33184;48.774;8.918;2022-11-24T13:17:34;11.47;62.51
47434;SHT31;33184;48.774;8.918;2022-11-24T13:22:59;10.62;64.42
47434;SHT31;33184;48.774;8.918;2022-11-24T13:29:00;9.98;66.55
47434;SHT31;33184;48.774;8.918;2022-11-24T13:56:23;9.64;67.68
47434;SHT31;33184;48.774;8.918;2022-11-24T14:01:55;9.63;67.51
47434;SHT31;33184;48.774;8.918;2022-11-24T14:07:15;9.57;68.03
47434;SHT31;33184;48.774;8.918;2022-11-24T14:12:36;9.56;68.15
47434;SHT31;33184;48.774;8.918;2022-11-24T14:17:57;9.50;67.86
47434;SHT31;33184;48.774;8.918;2022-11-24T14:23:17;9.43;68.94
47434;SHT31;33184;48.774;8.918;2022-11-24T14:28:39;9.40;69.37
47434;SHT31;33184;48.774;8.918;2022-11-24T14:34:17;9.37;69.56
47434;SHT31;33184;48.774;8.918;2022-11-24T14:39:41;9.29;70.01
47434;SHT31;33184;48.774;8.918;2022-11-24T14:45:02;9.20;70.36
47434;SHT31;33184;48.774;8.918;2022-11-24T14:50:23;9.16;70.79
47434;SHT31;33184;48.774;8.918;2022-11-24T14:55:44;9.05;70.84
47434;SHT31;33184;48.774;8.918;2022-11-24T15:06:44;8.82;70.98
47434;SHT31;33184;48.774;8.918;2022-11-24T15:12:07;8.67;71.92
47434;SHT31;33184;48.774;8.918;2022-11-24T15:17:29;8.51;72.16
47434;SHT31;33184;48.774;8.918;2022-11-24T15:22:49;8.38;72.68
47434;SHT31;33184;48.774;8.918;2022-11-24T15:28:12;8.27;72.89
47434;SHT31;33184;48.774;8.918;2022-11-24T15:33:32;8.14;73.13
47434;SHT31;33184;48.774;8.918;2022-11-24T15:38:53;8.07;73.33
47434;SHT31;33184;48.774;8.918;2022-11-24T15:44:13;7.95;73.66
47434;SHT31;33184;48.774;8.918;2022-11-24T15:49:34;7.81;74.21
47434;SHT31;33184;48.774;8.918;2022-11-24T15:54:54;7.65;74.66
47434;SHT31;33184;48.774;8.918;2022-11-24T16:00:20;7.48;74.89
47434;SHT31;33184;48.774;8.918;2022-11-24T16:05:41;7.21;75.09
47434;SHT31;33184;48.774;8.918;2022-11-24T16:11:02;7.03;76.02
47434;SHT31;33184;48.774;8.918;2022-11-24T16:16:23;6.97;77.03
47434;SHT31;33184;48.774;8.918;2022-11-24T16:21:46;6.80;77.18
47434;SHT31;33184;48.774;8.918;2022-11-24T16:27:07;6.63;77.05
47434;SHT31;33184;48.774;8.918;2022-11-24T16:32:28;6.39;78.34
47434;SHT31;33184;48.774;8.918;2022-11-24T16:37:48;6.26;78.79
47434;SHT31;33184;48.774;8.918;2022-11-24T16:43:09;6.25;79.55
47434;SHT31;33184;48.774;8.918;2022-11-24T16:48:34;6.22;79.28
47434;SHT31;33184;48.774;8.918;2022-11-24T16:53:56;6.15;79.24
47434;SHT31;33184;48.774;8.918;2022-11-24T16:59:17;6.09;79.16
47434;SHT31;33184;48.774;8.918;2022-11-24T17:04:38;5.93;79.47
47434;SHT31;33184;48.774;8.918;2022-11-24T17:09:59;5.88;79.36
47434;SHT31;33184;48.774;8.918;2022-11-24T17:15:19;5.70;79.22
47434;SHT31;33184;48.774;8.918;2022-11-24T17:20:40;5.48;79.94
47434;SHT31;33184;48.774;8.918;2022-11-24T17:26:01;5.50;81.12
47434;SHT31;33184;48.774;8.918;2022-11-24T17:31:24;5.36;81.18
47434;SHT31;33184;48.774;8.918;2022-11-24T17:36:45;5.24;81.21
47434;SHT31;33184;48.774;8.918;2022-11-24T17:42:06;5.19;81.23
47434;SHT31;33184;48.774;8.918;2022-11-24T17:47:26;5.12;81.35
47434;SHT31;33184;48.774;8.918;2022-11-24T17:52:49;5.08;81.50
47434;SHT31;33184;48.774;8.918;2022-11-24T17:58:09;4.87;82.48
47434;SHT31;33184;48.774;8.918;2022-11-24T18:03:30;4.69;82.82
47434;SHT31;33184;48.774;8.918;2022-11-24T18:08:52;4.71;83.29
47434;SHT31;33184;48.774;8.918;2022-11-24T18:14:13;4.69;82.86
47434;SHT31;33184;48.774;8.918;2022-11-24T18:19:33;4.64;82.66
47434;SHT31;33184;48.774;8.918;2022-11-24T18:24:54;4.54;82.49
47434;SHT31;33184;48.774;8.918;2022-11-24T18:30:15;4.51;82.89
47434;SHT31;33184;48.774;8.918;2022-11-24T18:35:35;4.41;82.77
47434;SHT31;33184;48.774;8.918;2022-11-24T18:40:59;4.37;82.57
47434;SHT31;33184;48.774;8.918;2022-11-24T18:46:19;4.24;82.95
47434;SHT31;33184;48.774;8.918;2022-11-24T18:51:40;4.02;83.97
47434;SHT31;33184;48.774;8.918;2022-11-24T18:57:00;4.00;84.84
47434;SHT31;33184;48.774;8.918;2022-11-24T19:02:21;4.00;84.13
47434;SHT31;33184;48.774;8.918;2022-11-24T19:07:41;3.89;83.60
47434;SHT31;33184;48.774;8.918;2022-11-24T19:13:02;3.82;85.86
47434;SHT31;33184;48.774;8.918;2022-11-24T19:18:22;3.87;85.46
47434;SHT31;33184;48.774;8.918;2022-11-24T19:23:43;3.83;84.90
47434;SHT31;33184;48.774;8.918;2022-11-24T19:29:05;3.65;84.53
47434;SHT31;33184;48.774;8.918;2022-11-24T19:34:25;3.49;85.54
47434;SHT31;33184;48.774;8.918;2022-11-24T19:39:46;3.48;85.79
47434;SHT31;33184;48.774;8.918;2022-11-24T19:45:07;3.59;85.64
47434;SHT31;33184;48.774;8.918;2022-11-24T19:50:28;3.49;84.87
47434;SHT31;33184;48.774;8.918;2022-11-24T19:55:48;3.37;85.26
47434;SHT31;33184;48.774;8.918;2022-11-24T20:06:36;3.55;85.33
47434;SHT31;33184;48.774;8.918;2022-11-24T20:11:57;3.51;85.15
47434;SHT31;33184;48.774;8.918;2022-11-24T20:17:18;3.39;85.43
47434;SHT31;33184;48.774;8.918;2022-11-24T20:22:39;3.37;85.70
47434;SHT31;33184;48.774;8.918;2022-11-24T20:28:00;3.37;85.88
47434;SHT31;33184;48.774;8.918;2022-11-24T20:33:20;3.27;85.54
47434;SHT31;33184;48.774;8.918;2022-11-24T20:38:42;3.17;85.74
47434;SHT31;33184;48.774;8.918;2022-11-24T20:44:04;3.12;86.11
47434;SHT31;33184;48.774;8.918;2022-11-24T20:49:27;3.09;86.14
47434;SHT31;33184;48.774;8.918;2022-11-24T20:54:48;2.97;86.33
47434;SHT31;33184;48.774;8.918;2022-11-24T21:00:08;2.84;85.90
47434;SHT31;33184;48.774;8.918;2022-11-24T21:05:29;2.77;86.16
47434;SHT31;33184;48.774;8.918;2022-11-24T21:10:56;2.70;85.95
47434;SHT31;33184;48.774;8.918;2022-11-24T21:16:21;2.66;85.76
47434;SHT31;33184;48.774;8.918;2022-11-24T21:21:42;2.52;85.54
47434;SHT31;33184;48.774;8.918;2022-11-24T21:27:03;2.45;85.81
47434;SHT31;33184;48.774;8.918;2022-11-24T21:32:24;2.39;86.06
47434;SHT31;33184;48.774;8.918;2022-11-24T21:37:45;2.45;86.31
47434;SHT31;33184;48.774;8.918;2022-11-24T21:43:06;2.33;85.74
47434;SHT31;33184;48.774;8.918;2022-11-24T21:48:30;2.28;85.57
47434;SHT31;33184;48.774;8.918;2022-11-24T21:53:51;2.06;85.53
47434;SHT31;33184;48.774;8.918;2022-11-24T21:59:12;2.05;86.67
47434;SHT31;33184;48.774;8.918;2022-11-24T22:04:33;2.21;86.89
47434;SHT31;33184;48.774;8.918;2022-11-24T22:09:53;2.19;86.44
47434;SHT31;33184;48.774;8.918;2022-11-24T22:15:14;2.22;86.08
47434;SHT31;33184;48.774;8.918;2022-11-24T22:20:34;2.18;85.99
47434;SHT31;33184;48.774;8.918;2022-11-24T22:26:00;2.16;86.14
47434;SHT31;33184;48.774;8.918;2022-11-24T22:31:29;2.06;86.38
47434;SHT31;33184;48.774;8.918;2022-11-24T22:36:50;2.08;86.53
47434;SHT31;33184;48.774;8.918;2022-11-24T22:42:10;2.02;86.31
47434;SHT31;33184;48.774;8.918;2022-11-24T22:47:31;1.92;86.52
47434;SHT31;33184;48.774;8.918;2022-11-24T22:52:51;1.84;86.41
47434;SHT31;33184;48.774;8.918;2022-11-24T22:58:13;1.73;86.37
47434;SHT31;33184;48.774;8.918;2022-11-24T23:03:34;1.66;86.34
47434;SHT31;33184;48.774;8.918;2022-11-24T23:08:56;1.66;86.43
47434;SHT31;33184;48.774;8.918;2022-11-24T23:14:16;1.51;86.55
47434;SHT31;33184;48.774;8.918;2022-11-24T23:19:37;1.50;87.18
47434;SHT31;33184;48.774;8.918;2022-11-24T23:24:57;1.51;87.17
47434;SHT31;33184;48.774;8.918;2022-11-24T23:30:18;1.46;87.57
47434;SHT31;33184;48.774;8.918;2022-11-24T23:35:38;1.58;87.89
47434;SHT31;33184;48.774;8.918;2022-11-24T23:41:01;1.60;88.40
47434;SHT31;33184;48.774;8.918;2022-11-24T23:46:26;1.66;88.69
47434;SHT31;33184;48.774;8.918;2022-11-24T23:51:47;1.68;88.53
47434;SHT31;33184;48.774;8.918;2022-11-24T23:57:07;1.61;88.56
